sensor_id;sensor_type;location;lat;lon;timestamp;P1;durP1;ratioP1;P2;durP2;ratioP2
21120;SDS011;12519;43.318;21.898;2023-03-07T00:02:20;10.0;;;9.0;;
21120;SDS011;12519;43.318;21.898;2023-03-07T00:06:57;10.0;;;9.0;;
21120;SDS011;12519;43.318;21.898;2023-03-07T00:11:34;10.0;;;9.0;;
21120;SDS011;12519;43.318;21.898;2023-03-07T00:16:15;12.0;;;11.0;;
21120;SDS011;12519;43.318;21.898;2023-03-07T00:20:59;12.0;;;11.0;;
21120;SDS011;12519;43.318;21.898;2023-03-07T00:25:43;15.0;;;13.0;;
21120;SDS011;12519;43.318;21.898;2023-03-07T00:30:20;15.0;;;13.0;;
21120;SDS011;12519;43.318;21.898;2023-03-07T00:35:00;16.0;;;14.0;;
21120;SDS011;12519;43.318;21.898;2023-03-07T00:39:37;16.0;;;14.0;;
21120;SDS011;12519;43.318;21.898;2023-03-07T00:44:14;17.0;;;16.0;;
21120;SDS011;12519;43.318;21.898;2023-03-07T00:48:51;17.0;;;16.0;;
21120;SDS011;12519;43.318;21.898;2023-03-07T00:53:30;14.0;;;13.0;;
21120;SDS011;12519;43.318;21.898;2023-03-07T00:58:08;14.0;;;13.0;;
21120;SDS011;12519;43.318;21.898;2023-03-07T01:02:45;11.0;;;10.0;;
21120;SDS011;12519;43.318;21.898;2023-03-07T01:07:22;11.0;;;10.0;;
21120;SDS011;12519;43.318;21.898;2023-03-07T01:11:58;11.0;;;10.0;;
21120;SDS011;12519;43.318;21.898;2023-03-07T01:16:37;12.0;;;10.0;;
21120;SDS011;12519;43.318;21.898;2023-03-07T01:21:20;12.0;;;10.0;;
21120;SDS011;12519;43.318;21.898;2023-03-07T01:26:03;13.0;;;11.0;;
21120;SDS011;12519;43.318;21.898;2023-03-07T01:30:41;13.0;;;11.0;;
21120;SDS011;12519;43.318;21.898;2023-03-07T01:35:17;14.0;;;12.0;;
21120;SDS011;12519;43.318;21.898;2023-03-07T01:39:54;14.0;;;12.0;;
21120;SDS011;12519;43.318;21.898;2023-03-07T01:45:05;15.0;;;12.0;;
21120;SDS011;12519;43.318;21.898;2023-03-07T01:51:01;15.0;;;12.0;;
21120;SDS011;12519;43.318;21.898;2023-03-07T01:55:38;12.0;;;10.0;;
21120;SDS011;12519;43.318;21.898;2023-03-07T02:00:21;12.0;;;10.0;;
21120;SDS011;12519;43.318;21.898;2023-03-07T02:05:09;10.0;;;8.0;;
21120;SDS011;12519;43.318;21.898;2023-03-07T02:09:57;10.0;;;8.0;;
21120;SDS011;12519;43.318;21.898;2023-03-07T02:14:36;10.0;;;8.0;;
21120;SDS011;12519;43.318;21.898;2023-03-07T02:19:43;10.0;;;8.0;;
21120;SDS011;12519;43.318;21.898;2023-03-07T02:25:08;9.0;;;8.0;;
21120;SDS011;12519;43.318;21.898;2023-03-07T02:30:10;9.0;;;8.0;;
21120;SDS011;12519;43.318;21.898;2023-03-07T02:34:48;10.0;;;8.0;;
21120;SDS011;12519;43.318;21.898;2023-03-07T02:39:27;10.0;;;8.0;;
21120;SDS011;12519;43.318;21.898;2023-03-07T02:44:06;10.0;;;8.0;;
21120;SDS011;12519;43.318;21.898;2023-03-07T02:48:42;10.0;;;8.0;;
21120;SDS011;12519;43.318;21.898;2023-03-07T02:53:19;12.0;;;10.0;;
21120;SDS011;12519;43.318;21.898;2023-03-07T02:57:56;12.0;;;10.0;;
21120;SDS011;12519;43.318;21.898;2023-03-07T03:02:33;15.0;;;12.0;;
21120;SDS011;12519;43.318;21.898;2023-03-07T03:07:10;15.0;;;12.0;;
21120;SDS011;12519;43.318;21.898;2023-03-07T03:11:47;15.0;;;12.0;;
21120;SDS011;12519;43.318;21.898;2023-03-07T03:16:23;16.0;;;14.0;;
21120;SDS011;12519;43.318;21.898;2023-03-07T03:21:08;16.0;;;14.0;;
21120;SDS011;12519;43.318;21.898;2023-03-07T03:25:58;17.0;;;16.0;;
21120;SDS011;12519;43.318;21.898;2023-03-07T03:30:40;17.0;;;16.0;;
21120;SDS011;12519;43.318;21.898;2023-03-07T03:35:17;17.0;;;15.0;;
21120;SDS011;12519;43.318;21.898;2023-03-07T03:39:54;17.0;;;15.0;;
21120;SDS011;12519;43.318;21.898;2023-03-07T03:44:31;17.0;;;14.0;;
21120;SDS011;12519;43.318;21.898;2023-03-07T03:49:11;17.0;;;14.0;;
21120;SDS011;12519;43.318;21.898;2023-03-07T03:53:50;16.0;;;14.0;;
21120;SDS011;12519;43.318;21.898;2023-03-07T03:58:28;16.0;;;14.0;;
21120;SDS011;12519;43.318;21.898;2023-03-07T04:03:06;15.0;;;15.0;;
21120;SDS011;12519;43.318;21.898;2023-03-07T04:07:43;15.0;;;15.0;;
21120;SDS011;12519;43.318;21.898;2023-03-07T04:12:19;15.0;;;15.0;;
21120;SDS011;12519;43.318;21.898;2023-03-07T04:16:56;16.0;;;15.0;;
21120;SDS011;12519;43.318;21.898;2023-03-07T04:21:33;16.0;;;15.0;;
21120;SDS011;12519;43.318;21.898;2023-03-07T04:26:11;17.0;;;15.0;;
21120;SDS011;12519;43.318;21.898;2023-03-07T04:30:47;17.0;;;15.0;;
21120;SDS011;12519;43.318;21.898;2023-03-07T04:35:24;18.0;;;16.0;;
21120;SDS011;12519;43.318;21.898;2023-03-07T04:40:01;18.0;;;16.0;;
21120;SDS011;12519;43.318;21.898;2023-03-07T04:44:37;20.0;;;16.0;;
21120;SDS011;12519;43.318;21.898;2023-03-07T04:49:13;20.0;;;16.0;;
21120;SDS011;12519;43.318;21.898;2023-03-07T04:53:49;22.0;;;18.0;;
21120;SDS011;12519;43.318;21.898;2023-03-07T04:58:26;22.0;;;18.0;;
21120;SDS011;12519;43.318;21.898;2023-03-07T05:03:10;23.0;;;21.0;;
21120;SDS011;12519;43.318;21.898;2023-03-07T05:07:49;23.0;;;21.0;;
21120;SDS011;12519;43.318;21.898;2023-03-07T05:12:26;23.0;;;21.0;;
21120;SDS011;12519;43.318;21.898;2023-03-07T05:17:02;25.0;;;20.0;;
21120;SDS011;12519;43.318;21.898;2023-03-07T05:21:39;25.0;;;20.0;;
21120;SDS011;12519;43.318;21.898;2023-03-07T05:26:16;27.0;;;20.0;;
21120;SDS011;12519;43.318;21.898;2023-03-07T05:30:53;27.0;;;20.0;;
21120;SDS011;12519;43.318;21.898;2023-03-07T05:35:29;32.0;;;24.0;;
21120;SDS011;12519;43.318;21.898;2023-03-07T05:40:09;32.0;;;24.0;;
21120;SDS011;12519;43.318;21.898;2023-03-07T05:44:48;37.0;;;29.0;;
21120;SDS011;12519;43.318;21.898;2023-03-07T05:49:25;37.0;;;29.0;;
21120;SDS011;12519;43.318;21.898;2023-03-07T05:54:02;31.0;;;26.0;;
21120;SDS011;12519;43.318;21.898;2023-03-07T05:58:39;31.0;;;26.0;;
21120;SDS011;12519;43.318;21.898;2023-03-07T06:03:16;25.0;;;23.0;;
21120;SDS011;12519;43.318;21.898;2023-03-07T06:07:52;25.0;;;23.0;;
21120;SDS011;12519;43.318;21.898;2023-03-07T06:12:29;25.0;;;23.0;;
21120;SDS011;12519;43.318;21.898;2023-03-07T06:17:06;50.0;;;42.0;;
21120;SDS011;12519;43.318;21.898;2023-03-07T06:21:43;50.0;;;42.0;;
21120;SDS011;12519;43.318;21.898;2023-03-07T06:26:20;75.0;;;61.0;;
21120;SDS011;12519;43.318;21.898;2023-03-07T06:30:57;75.0;;;61.0;;
21120;SDS011;12519;43.318;21.898;2023-03-07T06:35:39;80.0;;;62.0;;
21120;SDS011;12519;43.318;21.898;2023-03-07T06:40:19;80.0;;;62.0;;
21120;SDS011;12519;43.318;21.898;2023-03-07T06:44:56;86.0;;;64.0;;
21120;SDS011;12519;43.318;21.898;2023-03-07T06:49:33;86.0;;;64.0;;
21120;SDS011;12519;43.318;21.898;2023-03-07T06:54:10;64.0;;;48.0;;
21120;SDS011;12519;43.318;21.898;2023-03-07T06:58:47;64.0;;;48.0;;
21120;SDS011;12519;43.318;21.898;2023-03-07T07:03:25;41.0;;;33.0;;
21120;SDS011;12519;43.318;21.898;2023-03-07T07:08:03;41.0;;;33.0;;
21120;SDS011;12519;43.318;21.898;2023-03-07T07:12:39;41.0;;;33.0;;
21120;SDS011;12519;43.318;21.898;2023-03-07T07:17:16;39.0;;;32.0;;
21120;SDS011;12519;43.318;21.898;2023-03-07T07:21:52;39.0;;;32.0;;
21120;SDS011;12519;43.318;21.898;2023-03-07T07:26:29;37.0;;;31.0;;
21120;SDS011;12519;43.318;21.898;2023-03-07T07:31:05;37.0;;;31.0;;
21120;SDS011;12519;43.318;21.898;2023-03-07T07:35:42;27.0;;;23.0;;
21120;SDS011;12519;43.318;21.898;2023-03-07T07:40:19;27.0;;;23.0;;
21120;SDS011;12519;43.318;21.898;2023-03-07T07:44:56;17.0;;;15.0;;
21120;SDS011;12519;43.318;21.898;2023-03-07T07:49:33;17.0;;;15.0;;
21120;SDS011;12519;43.318;21.898;2023-03-07T07:54:11;14.0;;;12.0;;
21120;SDS011;12519;43.318;21.898;2023-03-07T07:58:48;14.0;;;12.0;;
21120;SDS011;12519;43.318;21.898;2023-03-07T08:03:25;10.0;;;10.0;;
21120;SDS011;12519;43.318;21.898;2023-03-07T08:08:02;10.0;;;10.0;;
21120;SDS011;12519;43.318;21.898;2023-03-07T08:12:39;10.0;;;10.0;;
21120;SDS011;12519;43.318;21.898;2023-03-07T08:17:17;14.0;;;12.0;;
21120;SDS011;12519;43.318;21.898;2023-03-07T08:21:54;14.0;;;12.0;;
21120;SDS011;12519;43.318;21.898;2023-03-07T08:26:30;19.0;;;15.0;;
21120;SDS011;12519;43.318;21.898;2023-03-07T08:31:11;19.0;;;15.0;;
21120;SDS011;12519;43.318;21.898;2023-03-07T08:35:51;16.0;;;13.0;;
21120;SDS011;12519;43.318;21.898;2023-03-07T08:40:30;16.0;;;13.0;;
21120;SDS011;12519;43.318;21.898;2023-03-07T08:45:09;12.0;;;11.0;;
21120;SDS011;12519;43.318;21.898;2023-03-07T08:49:47;12.0;;;11.0;;
21120;SDS011;12519;43.318;21.898;2023-03-07T08:54:24;14.0;;;12.0;;
21120;SDS011;12519;43.318;21.898;2023-03-07T08:59:02;14.0;;;12.0;;
21120;SDS011;12519;43.318;21.898;2023-03-07T09:03:39;15.0;;;12.0;;
21120;SDS011;12519;43.318;21.898;2023-03-07T09:08:17;15.0;;;12.0;;
21120;SDS011;12519;43.318;21.898;2023-03-07T09:12:53;15.0;;;12.0;;
21120;SDS011;12519;43.318;21.898;2023-03-07T09:17:30;12.0;;;10.0;;
21120;SDS011;12519;43.318;21.898;2023-03-07T09:22:06;12.0;;;10.0;;
21120;SDS011;12519;43.318;21.898;2023-03-07T09:26:43;8.0;;;8.0;;
21120;SDS011;12519;43.318;21.898;2023-03-07T09:31:21;8.0;;;8.0;;
21120;SDS011;12519;43.318;21.898;2023-03-07T09:35:57;7.0;;;7.0;;
21120;SDS011;12519;43.318;21.898;2023-03-07T09:40:34;7.0;;;7.0;;
21120;SDS011;12519;43.318;21.898;2023-03-07T09:45:37;6.0;;;6.0;;
21120;SDS011;12519;43.318;21.898;2023-03-07T09:50:55;6.0;;;6.0;;
21120;SDS011;12519;43.318;21.898;2023-03-07T09:55:35;6.0;;;6.0;;
21120;SDS011;12519;43.318;21.898;2023-03-07T10:00:25;6.0;;;6.0;;
21120;SDS011;12519;43.318;21.898;2023-03-07T10:05:29;5.0;;;5.0;;
21120;SDS011;12519;43.318;21.898;2023-03-07T10:10:23;5.0;;;5.0;;
21120;SDS011;12519;43.318;21.898;2023-03-07T10:15:41;6.0;;;6.0;;
21120;SDS011;12519;43.318;21.898;2023-03-07T10:20:39;6.0;;;6.0;;
21120;SDS011;12519;43.318;21.898;2023-03-07T10:25:44;7.0;;;6.0;;
21120;SDS011;12519;43.318;21.898;2023-03-07T10:30:40;7.0;;;6.0;;
21120;SDS011;12519;43.318;21.898;2023-03-07T10:35:21;6.0;;;6.0;;
21120;SDS011;12519;43.318;21.898;2023-03-07T10:40:24;6.0;;;6.0;;
21120;SDS011;12519;43.318;21.898;2023-03-07T10:45:19;5.0;;;5.0;;
21120;SDS011;12519;43.318;21.898;2023-03-07T10:50:23;5.0;;;5.0;;
21120;SDS011;12519;43.318;21.898;2023-03-07T10:55:38;6.0;;;6.0;;
21120;SDS011;12519;43.318;21.898;2023-03-07T11:00:19;6.0;;;6.0;;
21120;SDS011;12519;43.318;21.898;2023-03-07T11:04:58;7.0;;;6.0;;
21120;SDS011;12519;43.318;21.898;2023-03-07T11:09:47;7.0;;;6.0;;
21120;SDS011;12519;43.318;21.898;2023-03-07T11:14:27;6.0;;;6.0;;
21120;SDS011;12519;43.318;21.898;2023-03-07T11:19:32;6.0;;;6.0;;
21120;SDS011;12519;43.318;21.898;2023-03-07T11:24:26;6.0;;;5.0;;
21120;SDS011;12519;43.318;21.898;2023-03-07T11:29:11;6.0;;;5.0;;
21120;SDS011;12519;43.318;21.898;2023-03-07T11:34:03;6.0;;;6.0;;
21120;SDS011;12519;43.318;21.898;2023-03-07T11:39:17;6.0;;;6.0;;
21120;SDS011;12519;43.318;21.898;2023-03-07T11:44:35;7.0;;;6.0;;
21120;SDS011;12519;43.318;21.898;2023-03-07T11:49:53;7.0;;;6.0;;
21120;SDS011;12519;43.318;21.898;2023-03-07T11:55:23;8.0;;;7.0;;
21120;SDS011;12519;43.318;21.898;2023-03-07T12:00:32;8.0;;;7.0;;
21120;SDS011;12519;43.318;21.898;2023-03-07T12:06:23;8.0;;;8.0;;
21120;SDS011;12519;43.318;21.898;2023-03-07T12:12:07;8.0;;;8.0;;
21120;SDS011;12519;43.318;21.898;2023-03-07T12:18:03;8.0;;;7.0;;
21120;SDS011;12519;43.318;21.898;2023-03-07T12:23:35;7.0;;;6.0;;
21120;SDS011;12519;43.318;21.898;2023-03-07T12:28:32;7.0;;;6.0;;
21120;SDS011;12519;43.318;21.898;2023-03-07T12:33:47;6.0;;;6.0;;
21120;SDS011;12519;43.318;21.898;2023-03-07T12:38:51;6.0;;;6.0;;
21120;SDS011;12519;43.318;21.898;2023-03-07T12:43:50;6.0;;;5.0;;
21120;SDS011;12519;43.318;21.898;2023-03-07T12:48:48;6.0;;;5.0;;
21120;SDS011;12519;43.318;21.898;2023-03-07T12:53:48;6.0;;;5.0;;
21120;SDS011;12519;43.318;21.898;2023-03-07T12:58:46;6.0;;;5.0;;
21120;SDS011;12519;43.318;21.898;2023-03-07T13:03:49;6.0;;;5.0;;
21120;SDS011;12519;43.318;21.898;2023-03-07T13:08:48;6.0;;;5.0;;
21120;SDS011;12519;43.318;21.898;2023-03-07T13:13:54;9.0;;;6.0;;
21120;SDS011;12519;43.318;21.898;2023-03-07T13:18:35;9.0;;;6.0;;
21120;SDS011;12519;43.318;21.898;2023-03-07T13:23:30;9.0;;;6.0;;
21120;SDS011;12519;43.318;21.898;2023-03-07T13:28:39;12.0;;;8.0;;
21120;SDS011;12519;43.318;21.898;2023-03-07T13:33:27;12.0;;;8.0;;
21120;SDS011;12519;43.318;21.898;2023-03-07T13:38:33;11.0;;;7.0;;
21120;SDS011;12519;43.318;21.898;2023-03-07T13:45:49;10.0;;;6.0;;
21120;SDS011;12519;43.318;21.898;2023-03-07T13:50:37;10.0;;;6.0;;
21120;SDS011;12519;43.318;21.898;2023-03-07T13:55:48;8.0;;;6.0;;
21120;SDS011;12519;43.318;21.898;2023-03-07T14:00:51;8.0;;;6.0;;
21120;SDS011;12519;43.318;21.898;2023-03-07T14:05:38;7.0;;;6.0;;
21120;SDS011;12519;43.318;21.898;2023-03-07T14:10:23;7.0;;;6.0;;
21120;SDS011;12519;43.318;21.898;2023-03-07T14:15:27;6.0;;;5.0;;
21120;SDS011;12519;43.318;21.898;2023-03-07T14:20:56;6.0;;;5.0;;
21120;SDS011;12519;43.318;21.898;2023-03-07T14:26:17;5.0;;;4.0;;
21120;SDS011;12519;43.318;21.898;2023-03-07T14:31:27;5.0;;;4.0;;
21120;SDS011;12519;43.318;21.898;2023-03-07T14:36:21;5.0;;;4.0;;
21120;SDS011;12519;43.318;21.898;2023-03-07T14:41:38;5.0;;;4.0;;
21120;SDS011;12519;43.318;21.898;2023-03-07T14:47:25;5.0;;;4.0;;
21120;SDS011;12519;43.318;21.898;2023-03-07T14:53:13;5.0;;;4.0;;
21120;SDS011;12519;43.318;21.898;2023-03-07T14:58:04;6.0;;;4.0;;
21120;SDS011;12519;43.318;21.898;2023-03-07T15:02:53;6.0;;;4.0;;
21120;SDS011;12519;43.318;21.898;2023-03-07T15:07:39;6.0;;;5.0;;
21120;SDS011;12519;43.318;21.898;2023-03-07T15:12:26;6.0;;;5.0;;
21120;SDS011;12519;43.318;21.898;2023-03-07T15:17:16;6.0;;;5.0;;
21120;SDS011;12519;43.318;21.898;2023-03-07T15:22:14;6.0;;;5.0;;
21120;SDS011;12519;43.318;21.898;2023-03-07T15:27:05;5.0;;;5.0;;
21120;SDS011;12519;43.318;21.898;2023-03-07T15:31:54;5.0;;;5.0;;
21120;SDS011;12519;43.318;21.898;2023-03-07T15:36:33;6.0;;;6.0;;
21120;SDS011;12519;43.318;21.898;2023-03-07T15:41:41;6.0;;;6.0;;
21120;SDS011;12519;43.318;21.898;2023-03-07T15:46:45;6.0;;;6.0;;
21120;SDS011;12519;43.318;21.898;2023-03-07T15:51:36;6.0;;;6.0;;
21120;SDS011;12519;43.318;21.898;2023-03-07T15:56:28;8.0;;;7.0;;
21120;SDS011;12519;43.318;21.898;2023-03-07T16:01:21;8.0;;;7.0;;
21120;SDS011;12519;43.318;21.898;2023-03-07T16:06:03;9.0;;;8.0;;
21120;SDS011;12519;43.318;21.898;2023-03-07T16:10:51;9.0;;;8.0;;
21120;SDS011;12519;43.318;21.898;2023-03-07T16:15:39;10.0;;;9.0;;
21120;SDS011;12519;43.318;21.898;2023-03-07T16:20:20;10.0;;;9.0;;
21120;SDS011;12519;43.318;21.898;2023-03-07T16:25:06;12.0;;;10.0;;
21120;SDS011;12519;43.318;21.898;2023-03-07T16:29:45;12.0;;;10.0;;
21120;SDS011;12519;43.318;21.898;2023-03-07T16:34:23;12.0;;;10.0;;
21120;SDS011;12519;43.318;21.898;2023-03-07T16:39:00;12.0;;;10.0;;
21120;SDS011;12519;43.318;21.898;2023-03-07T16:43:37;12.0;;;10.0;;
21120;SDS011;12519;43.318;21.898;2023-03-07T16:48:16;11.0;;;9.0;;
21120;SDS011;12519;43.318;21.898;2023-03-07T16:52:53;11.0;;;9.0;;
21120;SDS011;12519;43.318;21.898;2023-03-07T16:57:29;14.0;;;10.0;;
21120;SDS011;12519;43.318;21.898;2023-03-07T17:02:15;14.0;;;10.0;;
21120;SDS011;12519;43.318;21.898;2023-03-07T17:06:58;17.0;;;12.0;;
21120;SDS011;12519;43.318;21.898;2023-03-07T17:11:40;17.0;;;12.0;;
21120;SDS011;12519;43.318;21.898;2023-03-07T17:16:28;18.0;;;13.0;;
21120;SDS011;12519;43.318;21.898;2023-03-07T17:21:14;18.0;;;13.0;;
21120;SDS011;12519;43.318;21.898;2023-03-07T17:25:57;20.0;;;14.0;;
21120;SDS011;12519;43.318;21.898;2023-03-07T17:30:35;20.0;;;14.0;;
21120;SDS011;12519;43.318;21.898;2023-03-07T17:35:12;20.0;;;16.0;;
21120;SDS011;12519;43.318;21.898;2023-03-07T17:39:51;20.0;;;16.0;;
21120;SDS011;12519;43.318;21.898;2023-03-07T17:44:29;20.0;;;17.0;;
21120;SDS011;12519;43.318;21.898;2023-03-07T17:49:08;20.0;;;17.0;;
21120;SDS011;12519;43.318;21.898;2023-03-07T17:53:45;20.0;;;17.0;;
21120;SDS011;12519;43.318;21.898;2023-03-07T17:58:22;22.0;;;19.0;;
21120;SDS011;12519;43.318;21.898;2023-03-07T18:02:58;22.0;;;19.0;;
21120;SDS011;12519;43.318;21.898;2023-03-07T18:07:35;24.0;;;21.0;;
21120;SDS011;12519;43.318;21.898;2023-03-07T18:12:12;24.0;;;21.0;;
21120;SDS011;12519;43.318;21.898;2023-03-07T18:16:49;22.0;;;19.0;;
21120;SDS011;12519;43.318;21.898;2023-03-07T18:21:26;22.0;;;19.0;;
21120;SDS011;12519;43.318;21.898;2023-03-07T18:26:08;20.0;;;17.0;;
21120;SDS011;12519;43.318;21.898;2023-03-07T18:30:48;20.0;;;17.0;;
21120;SDS011;12519;43.318;21.898;2023-03-07T18:35:36;18.0;;;16.0;;
21120;SDS011;12519;43.318;21.898;2023-03-07T18:40:13;18.0;;;16.0;;
21120;SDS011;12519;43.318;21.898;2023-03-07T18:44:50;17.0;;;15.0;;
21120;SDS011;12519;43.318;21.898;2023-03-07T18:49:27;17.0;;;15.0;;
21120;SDS011;12519;43.318;21.898;2023-03-07T18:54:03;17.0;;;15.0;;
21120;SDS011;12519;43.318;21.898;2023-03-07T18:58:42;16.0;;;14.0;;
21120;SDS011;12519;43.318;21.898;2023-03-07T19:03:22;16.0;;;14.0;;
21120;SDS011;12519;43.318;21.898;2023-03-07T19:07:58;15.0;;;13.0;;
21120;SDS011;12519;43.318;21.898;2023-03-07T19:12:35;15.0;;;13.0;;
21120;SDS011;12519;43.318;21.898;2023-03-07T19:17:11;15.0;;;14.0;;
21120;SDS011;12519;43.318;21.898;2023-03-07T19:21:48;15.0;;;14.0;;
21120;SDS011;12519;43.318;21.898;2023-03-07T19:26:25;15.0;;;14.0;;
21120;SDS011;12519;43.318;21.898;2023-03-07T19:31:08;15.0;;;14.0;;
21120;SDS011;12519;43.318;21.898;2023-03-07T19:36:02;17.0;;;16.0;;
21120;SDS011;12519;43.318;21.898;2023-03-07T19:40:47;17.0;;;16.0;;
21120;SDS011;12519;43.318;21.898;2023-03-07T19:45:23;19.0;;;18.0;;
21120;SDS011;12519;43.318;21.898;2023-03-07T19:50:00;19.0;;;18.0;;
21120;SDS011;12519;43.318;21.898;2023-03-07T19:54:38;22.0;;;20.0;;
21120;SDS011;12519;43.318;21.898;2023-03-07T19:59:15;22.0;;;20.0;;
21120;SDS011;12519;43.318;21.898;2023-03-07T20:03:53;22.0;;;20.0;;
21120;SDS011;12519;43.318;21.898;2023-03-07T20:08:34;25.0;;;21.0;;
21120;SDS011;12519;43.318;21.898;2023-03-07T20:13:11;25.0;;;21.0;;
21120;SDS011;12519;43.318;21.898;2023-03-07T20:17:48;27.0;;;23.0;;
21120;SDS011;12519;43.318;21.898;2023-03-07T20:22:25;27.0;;;23.0;;
21120;SDS011;12519;43.318;21.898;2023-03-07T20:27:03;29.0;;;25.0;;
21120;SDS011;12519;43.318;21.898;2023-03-07T20:31:40;29.0;;;25.0;;
21120;SDS011;12519;43.318;21.898;2023-03-07T20:36:22;26.0;;;24.0;;
21120;SDS011;12519;43.318;21.898;2023-03-07T20:41:11;26.0;;;24.0;;
21120;SDS011;12519;43.318;21.898;2023-03-07T20:45:51;24.0;;;23.0;;
21120;SDS011;12519;43.318;21.898;2023-03-07T20:50:27;24.0;;;23.0;;
21120;SDS011;12519;43.318;21.898;2023-03-07T20:55:06;18.0;;;18.0;;
21120;SDS011;12519;43.318;21.898;2023-03-07T20:59:43;18.0;;;18.0;;
21120;SDS011;12519;43.318;21.898;2023-03-07T21:04:19;18.0;;;18.0;;
21120;SDS011;12519;43.318;21.898;2023-03-07T21:08:57;13.0;;;12.0;;
21120;SDS011;12519;43.318;21.898;2023-03-07T21:13:38;13.0;;;12.0;;
21120;SDS011;12519;43.318;21.898;2023-03-07T21:18:21;12.0;;;11.0;;
21120;SDS011;12519;43.318;21.898;2023-03-07T21:22:59;12.0;;;11.0;;
21120;SDS011;12519;43.318;21.898;2023-03-07T21:27:36;12.0;;;10.0;;
21120;SDS011;12519;43.318;21.898;2023-03-07T21:32:12;12.0;;;10.0;;
21120;SDS011;12519;43.318;21.898;2023-03-07T21:36:49;12.0;;;10.0;;
21120;SDS011;12519;43.318;21.898;2023-03-07T21:41:28;12.0;;;10.0;;
21120;SDS011;12519;43.318;21.898;2023-03-07T21:46:10;11.0;;;10.0;;
21120;SDS011;12519;43.318;21.898;2023-03-07T21:50:51;11.0;;;10.0;;
21120;SDS011;12519;43.318;21.898;2023-03-07T21:55:27;14.0;;;12.0;;
21120;SDS011;12519;43.318;21.898;2023-03-07T22:00:07;14.0;;;12.0;;
21120;SDS011;12519;43.318;21.898;2023-03-07T22:04:47;18.0;;;13.0;;
21120;SDS011;12519;43.318;21.898;2023-03-07T22:09:24;18.0;;;13.0;;
21120;SDS011;12519;43.318;21.898;2023-03-07T22:14:02;18.0;;;13.0;;
21120;SDS011;12519;43.318;21.898;2023-03-07T22:18:39;18.0;;;13.0;;
21120;SDS011;12519;43.318;21.898;2023-03-07T22:23:17;18.0;;;13.0;;
21120;SDS011;12519;43.318;21.898;2023-03-07T22:27:54;19.0;;;13.0;;
21120;SDS011;12519;43.318;21.898;2023-03-07T22:32:30;19.0;;;13.0;;
21120;SDS011;12519;43.318;21.898;2023-03-07T22:37:08;18.0;;;14.0;;
21120;SDS011;12519;43.318;21.898;2023-03-07T22:41:45;18.0;;;14.0;;
21120;SDS011;12519;43.318;21.898;2023-03-07T22:46:22;18.0;;;14.0;;
21120;SDS011;12519;43.318;21.898;2023-03-07T22:51:00;18.0;;;14.0;;
21120;SDS011;12519;43.318;21.898;2023-03-07T22:55:41;26.0;;;21.0;;
21120;SDS011;12519;43.318;21.898;2023-03-07T23:00:21;26.0;;;21.0;;
21120;SDS011;12519;43.318;21.898;2023-03-07T23:04:59;35.0;;;28.0;;
21120;SDS011;12519;43.318;21.898;2023-03-07T23:09:36;35.0;;;28.0;;
21120;SDS011;12519;43.318;21.898;2023-03-07T23:14:13;35.0;;;28.0;;
21120;SDS011;12519;43.318;21.898;2023-03-07T23:18:55;32.0;;;28.0;;
21120;SDS011;12519;43.318;21.898;2023-03-07T23:23:35;32.0;;;28.0;;
21120;SDS011;12519;43.318;21.898;2023-03-07T23:28:13;30.0;;;27.0;;
21120;SDS011;12519;43.318;21.898;2023-03-07T23:32:49;30.0;;;27.0;;
21120;SDS011;12519;43.318;21.898;2023-03-07T23:37:26;36.0;;;30.0;;
21120;SDS011;12519;43.318;21.898;2023-03-07T23:42:02;36.0;;;30.0;;
21120;SDS011;12519;43.318;21.898;2023-03-07T23:46:40;41.0;;;34.0;;
21120;SDS011;12519;43.318;21.898;2023-03-07T23:51:18;41.0;;;34.0;;
21120;SDS011;12519;43.318;21.898;2023-03-07T23:55:57;50.0;;;40.0;;
